createdAt,value
2019-02-08T00:00:06.302Z,1000.27
2019-02-08T00:01:06.274Z,1000.29
2019-02-08T00:02:06.283Z,1000.34
2019-02-08T00:03:06.266Z,1000.32
2019-02-08T00:04:06.254Z,1000.33
2019-02-08T00:05:06.301Z,1000.37
2019-02-08T00:06:06.216Z,1000.35
2019-02-08T00:07:06.212Z,1000.31
2019-02-08T00:08:06.189Z,1000.35
2019-02-08T00:09:06.230Z,1000.31
2019-02-08T00:10:06.179Z,1000.30
2019-02-08T00:11:06.167Z,1000.35
2019-02-08T00:12:06.170Z,1000.40
2019-02-08T00:13:06.139Z,1000.37
2019-02-08T00:14:06.157Z,1000.34
2019-02-08T00:15:06.171Z,1000.38
2019-02-08T00:16:06.149Z,1000.43
2019-02-08T00:17:06.160Z,1000.43
2019-02-08T00:18:06.127Z,1000.40
2019-02-08T00:19:06.128Z,1000.43
2019-02-08T00:20:06.107Z,1000.44
2019-02-08T00:21:06.081Z,1000.42
2019-02-08T00:22:06.052Z,1000.43
2019-02-08T00:23:06.037Z,1000.46
2019-02-08T00:24:06.026Z,1000.40
2019-02-08T00:25:06.025Z,1000.40
2019-02-08T00:26:06.020Z,1000.40
2019-02-08T00:27:06.034Z,1000.41
2019-02-08T00:28:05.984Z,1000.40
2019-02-08T00:29:05.993Z,1000.35
2019-02-08T00:30:06.016Z,1000.38
2019-02-08T00:31:05.998Z,1000.38
2019-02-08T00:32:06.011Z,1000.35
2019-02-08T00:33:05.990Z,1000.41
2019-02-08T00:34:05.923Z,1000.41
2019-02-08T00:35:05.913Z,1000.40
2019-02-08T00:36:05.922Z,1000.41
2019-02-08T00:37:05.887Z,1000.39
2019-02-08T00:38:05.892Z,1000.40
2019-02-08T00:39:05.915Z,1000.40
2019-02-08T00:40:05.858Z,1000.35
2019-02-08T00:41:05.852Z,1000.34
2019-02-08T00:42:05.846Z,1000.30
2019-02-08T00:43:05.822Z,1000.28
2019-02-08T00:44:05.810Z,1000.30
2019-02-08T00:45:05.817Z,1000.29
2019-02-08T00:46:05.792Z,1000.33
2019-02-08T00:47:05.789Z,1000.30
2019-02-08T00:48:05.786Z,1000.31
2019-02-08T00:49:05.777Z,1000.33
2019-02-08T00:50:05.746Z,1000.32
2019-02-08T00:51:05.737Z,1000.27
2019-02-08T00:52:05.747Z,1000.30
2019-02-08T00:53:05.720Z,1000.28
2019-02-08T00:54:05.704Z,1000.22
2019-02-08T00:55:05.695Z,1000.20
2019-02-08T00:56:05.702Z,1000.19
2019-02-08T00:57:05.685Z,1000.18
2019-02-08T00:58:05.664Z,1000.15
2019-02-08T00:59:05.656Z,1000.17
2019-02-08T01:00:05.646Z,1000.16
2019-02-08T01:01:05.636Z,1000.14
2019-02-08T01:02:05.643Z,1000.19
2019-02-08T01:03:05.618Z,1000.18
2019-02-08T01:04:05.621Z,1000.20
2019-02-08T01:05:05.593Z,1000.16
2019-02-08T01:06:05.576Z,1000.22
2019-02-08T01:07:05.629Z,1000.26
2019-02-08T01:08:05.577Z,1000.28
2019-02-08T01:09:05.552Z,1000.30
2019-02-08T01:10:05.538Z,1000.32
2019-02-08T01:11:05.560Z,1000.33
2019-02-08T01:12:05.526Z,1000.34
2019-02-08T01:13:05.522Z,1000.34
2019-02-08T01:14:05.523Z,1000.33
2019-02-08T01:15:05.479Z,1000.33
2019-02-08T01:16:05.486Z,1000.31
2019-02-08T01:17:05.492Z,1000.26
2019-02-08T01:18:05.450Z,1000.33
2019-02-08T01:19:05.443Z,1000.32
2019-02-08T01:20:05.432Z,1000.34
2019-02-08T01:21:05.421Z,1000.40
2019-02-08T01:22:05.425Z,1000.39
2019-02-08T01:23:05.404Z,1000.37
2019-02-08T01:24:05.390Z,1000.41
2019-02-08T01:25:05.379Z,1000.39
2019-02-08T01:26:05.385Z,1000.41
2019-02-08T01:27:05.368Z,1000.43
2019-02-08T01:28:05.338Z,1000.33
2019-02-08T01:29:05.327Z,1000.29
2019-02-08T01:30:05.340Z,1000.27
2019-02-08T01:31:05.324Z,1000.26
2019-02-08T01:32:05.311Z,1000.20
2019-02-08T01:33:05.302Z,1000.22
2019-02-08T01:34:05.300Z,1000.20
2019-02-08T01:35:05.277Z,1000.18
2019-02-08T01:36:05.274Z,1000.17
2019-02-08T01:37:05.266Z,1000.21
2019-02-08T01:38:05.229Z,1000.18
2019-02-08T01:39:05.225Z,1000.20
2019-02-08T01:40:05.260Z,1000.22
2019-02-08T01:41:05.236Z,1000.21
2019-02-08T01:42:05.191Z,1000.25
2019-02-08T01:43:05.178Z,1000.23
2019-02-08T01:44:05.173Z,1000.22
2019-02-08T01:45:05.187Z,1000.24
2019-02-08T01:46:05.176Z,1000.24
2019-02-08T01:47:05.148Z,1000.22
2019-02-08T01:48:05.118Z,1000.22
2019-02-08T01:49:05.109Z,1000.21
2019-02-08T01:50:05.128Z,1000.22
2019-02-08T01:51:05.126Z,1000.19
2019-02-08T01:52:05.096Z,1000.24
2019-02-08T01:53:05.072Z,1000.23
2019-02-08T01:54:05.070Z,1000.23
2019-02-08T01:55:05.053Z,1000.18
2019-02-08T01:56:05.046Z,1000.17
2019-02-08T01:57:05.029Z,1000.21
2019-02-08T01:58:05.060Z,1000.17
2019-02-08T01:59:05.008Z,1000.18
2019-02-08T02:00:05.004Z,1000.14
2019-02-08T02:01:05.019Z,1000.16
2019-02-08T02:02:04.996Z,1000.19
2019-02-08T02:03:04.962Z,1000.14
2019-02-08T02:04:04.960Z,1000.17
2019-02-08T02:05:05.020Z,1000.18
2019-02-08T02:06:04.972Z,1000.08
2019-02-08T02:07:04.920Z,1000.14
2019-02-08T02:08:04.927Z,1000.14
2019-02-08T02:09:04.906Z,1000.13
2019-02-08T02:10:04.919Z,1000.10
2019-02-08T02:11:04.876Z,1000.10
2019-02-08T02:12:04.867Z,1000.07
2019-02-08T02:13:04.856Z,1000.07
2019-02-08T02:14:04.853Z,1000.09
2019-02-08T02:15:04.839Z,1000.09
2019-02-08T02:16:04.824Z,1000.18
2019-02-08T02:17:04.810Z,1000.18
2019-02-08T02:18:04.796Z,1000.15
2019-02-08T02:19:04.786Z,1000.13
2019-02-08T02:20:04.777Z,1000.19
2019-02-08T02:21:04.785Z,1000.24
2019-02-08T02:22:04.746Z,1000.20
2019-02-08T02:23:04.745Z,1000.25
2019-02-08T02:24:04.749Z,1000.28
2019-02-08T02:25:04.730Z,1000.24
2019-02-08T02:26:04.716Z,1000.26
2019-02-08T02:27:04.691Z,1000.24
2019-02-08T02:28:04.678Z,1000.25
2019-02-08T02:29:04.693Z,1000.26
2019-02-08T02:30:04.681Z,1000.23
2019-02-08T02:31:04.651Z,1000.22
2019-02-08T02:32:04.648Z,1000.22
2019-02-08T02:33:04.627Z,1000.23
2019-02-08T02:34:04.617Z,1000.23
2019-02-08T02:35:04.632Z,1000.21
2019-02-08T02:36:04.605Z,1000.17
2019-02-08T02:37:04.600Z,1000.12
2019-02-08T02:38:04.616Z,1000.14
2019-02-08T02:39:04.567Z,1000.21
2019-02-08T02:40:04.630Z,1000.20
2019-02-08T02:41:04.546Z,1000.16
2019-02-08T02:42:04.539Z,1000.13
2019-02-08T02:43:04.528Z,1000.20
2019-02-08T02:44:04.517Z,1000.18
2019-02-08T02:45:04.511Z,1000.22
2019-02-08T02:46:04.514Z,1000.13
2019-02-08T02:47:04.482Z,1000.18
2019-02-08T02:48:04.483Z,1000.19
2019-02-08T02:49:04.497Z,1000.17
2019-02-08T02:50:04.472Z,1000.16
2019-02-08T02:51:04.439Z,1000.09
2019-02-08T02:52:04.429Z,1000.21
2019-02-08T02:53:04.430Z,1000.20
2019-02-08T02:54:05.125Z,1000.15
2019-02-08T02:55:04.428Z,1000.14
2019-02-08T02:56:04.411Z,1000.10
2019-02-08T02:57:04.375Z,1000.13
2019-02-08T02:58:04.381Z,1000.07
2019-02-08T02:59:04.370Z,1000.09
2019-02-08T03:00:04.353Z,1000.08
2019-02-08T03:01:04.344Z,1000.07
2019-02-08T03:02:04.362Z,1000.06
2019-02-08T03:03:04.316Z,1000.10
2019-02-08T03:04:04.305Z,1000.05
2019-02-08T03:05:04.311Z,1000.10
2019-02-08T03:06:04.279Z,1000.07
2019-02-08T03:07:04.276Z,1000.10
2019-02-08T03:08:04.270Z,1000.08
2019-02-08T03:09:04.259Z,1000.06
2019-02-08T03:10:04.235Z,1000.05
2019-02-08T03:11:04.265Z,1000.06
2019-02-08T03:12:04.206Z,1000.06
2019-02-08T03:13:04.229Z,1000.11
2019-02-08T03:14:04.244Z,1000.06
2019-02-08T03:15:04.183Z,1000.10
2019-02-08T03:16:04.220Z,1000.12
2019-02-08T03:17:04.160Z,1000.09
2019-02-08T03:18:04.149Z,1000.08
2019-02-08T03:19:04.176Z,1000.18
2019-02-08T03:20:04.144Z,1000.08
2019-02-08T03:21:04.141Z,1000.10
2019-02-08T03:22:04.107Z,1000.12
2019-02-08T03:23:04.112Z,1000.10
2019-02-08T03:24:04.091Z,1000.13
2019-02-08T03:25:04.069Z,1000.12
2019-02-08T03:26:04.059Z,1000.15
2019-02-08T03:27:04.068Z,1000.13
2019-02-08T03:28:04.077Z,1000.13
2019-02-08T03:29:04.123Z,1000.09
2019-02-08T03:30:04.053Z,1000.10
2019-02-08T03:31:04.082Z,1000.08
2019-02-08T03:32:04.005Z,1000.07
2019-02-08T03:33:04.009Z,1000.07
2019-02-08T03:34:04.026Z,1000.06
2019-02-08T03:35:03.963Z,1000.07
2019-02-08T03:36:03.947Z,1000.10
2019-02-08T03:37:03.961Z,1000.04
2019-02-08T03:38:03.935Z,1000.04
2019-02-08T03:39:03.967Z,1000.02
2019-02-08T03:40:03.922Z,999.96
2019-02-08T03:41:03.931Z,999.97
2019-02-08T03:42:03.893Z,1000.01
2019-02-08T03:43:03.879Z,999.99
2019-02-08T03:44:03.877Z,1000.01
2019-02-08T03:45:03.866Z,1000.01
2019-02-08T03:46:03.848Z,1000.02
2019-02-08T03:47:03.897Z,1000.05
2019-02-08T03:48:03.849Z,1000.00
2019-02-08T03:49:03.867Z,999.96
2019-02-08T03:50:03.804Z,999.98
2019-02-08T03:51:03.814Z,999.96
2019-02-08T03:52:03.818Z,999.95
2019-02-08T03:53:03.782Z,999.98
2019-02-08T03:54:03.772Z,999.98
2019-02-08T03:55:03.748Z,1000.01
2019-02-08T03:56:03.737Z,1000.02
2019-02-08T03:57:03.723Z,1000.02
2019-02-08T03:58:03.730Z,999.96
2019-02-08T03:59:03.727Z,999.90
2019-02-08T04:00:03.700Z,999.93
2019-02-08T04:01:03.694Z,999.90
2019-02-08T04:02:03.745Z,999.91
2019-02-08T04:03:03.670Z,999.88
2019-02-08T04:04:03.661Z,999.90
2019-02-08T04:05:03.645Z,999.95
2019-02-08T04:06:03.633Z,999.89
2019-02-08T04:07:03.630Z,999.92
2019-02-08T04:08:03.633Z,999.91
2019-02-08T04:09:03.602Z,999.90
2019-02-08T04:10:03.603Z,999.91
2019-02-08T04:11:03.577Z,999.93
2019-02-08T04:12:03.573Z,999.93
2019-02-08T04:13:03.569Z,999.94
2019-02-08T04:14:03.560Z,999.90
2019-02-08T04:15:03.533Z,999.86
2019-02-08T04:16:03.604Z,999.88
2019-02-08T04:17:03.509Z,999.89
2019-02-08T04:18:03.528Z,999.93
2019-02-08T04:19:03.509Z,999.92
2019-02-08T04:20:03.517Z,999.91
2019-02-08T04:21:03.466Z,999.93
2019-02-08T04:22:03.460Z,999.89
2019-02-08T04:23:03.470Z,999.88
2019-02-08T04:24:03.457Z,999.91
2019-02-08T04:25:03.439Z,999.89
2019-02-08T04:26:03.422Z,999.85
2019-02-08T04:27:03.417Z,999.91
2019-02-08T04:28:03.457Z,999.87
2019-02-08T04:29:03.436Z,999.90
2019-02-08T04:30:03.372Z,999.92
2019-02-08T04:31:03.379Z,999.86
2019-02-08T04:32:03.362Z,999.89
2019-02-08T04:33:03.352Z,999.87
2019-02-08T04:34:03.371Z,999.89
2019-02-08T04:35:03.319Z,999.83
2019-02-08T04:36:03.314Z,999.85
2019-02-08T04:37:03.316Z,999.85
2019-02-08T04:38:03.294Z,999.83
2019-02-08T04:39:03.279Z,999.78
2019-02-08T04:40:03.306Z,999.82
2019-02-08T04:41:03.305Z,999.76
2019-02-08T04:42:03.255Z,999.79
2019-02-08T04:43:03.239Z,999.76
2019-02-08T04:44:03.230Z,999.82
2019-02-08T04:45:03.236Z,999.81
2019-02-08T04:46:03.215Z,999.73
2019-02-08T04:47:03.197Z,999.76
2019-02-08T04:48:03.179Z,999.75
2019-02-08T04:49:03.169Z,999.71
2019-02-08T04:50:03.160Z,999.75
2019-02-08T04:51:03.168Z,999.75
2019-02-08T04:52:03.161Z,999.81
2019-02-08T04:53:03.125Z,999.83
2019-02-08T04:54:03.122Z,999.83
2019-02-08T04:55:03.132Z,999.82
2019-02-08T04:56:03.099Z,999.80
2019-02-08T04:57:03.084Z,999.78
2019-02-08T04:58:03.085Z,999.81
2019-02-08T04:59:03.074Z,999.86
2019-02-08T05:00:03.055Z,999.87
2019-02-08T05:01:03.062Z,999.80
2019-02-08T05:02:03.039Z,999.84
2019-02-08T05:03:03.065Z,999.83
2019-02-08T05:04:03.012Z,999.87
2019-02-08T05:05:03.055Z,999.79
2019-02-08T05:06:03.019Z,999.83
2019-02-08T05:07:02.973Z,999.84
2019-02-08T05:08:02.986Z,999.81
2019-02-08T05:09:02.956Z,999.85
2019-02-08T05:10:02.947Z,999.80
2019-02-08T05:11:02.959Z,999.83
2019-02-08T05:12:02.952Z,999.78
2019-02-08T05:13:02.914Z,999.81
2019-02-08T05:14:02.893Z,999.76
2019-02-08T05:15:02.905Z,999.79
2019-02-08T05:16:02.936Z,999.70
2019-02-08T05:17:02.888Z,999.73
2019-02-08T05:18:02.861Z,999.70
2019-02-08T05:19:02.856Z,999.76
2019-02-08T05:20:02.858Z,999.71
2019-02-08T05:21:02.847Z,999.71
2019-02-08T05:22:02.826Z,999.70
2019-02-08T05:23:02.829Z,999.72
2019-02-08T05:24:02.793Z,999.69
2019-02-08T05:25:02.785Z,999.73
2019-02-08T05:26:02.785Z,999.75
2019-02-08T05:27:02.765Z,999.71
2019-02-08T05:28:02.791Z,999.68
2019-02-08T05:29:02.745Z,999.72
2019-02-08T05:30:02.733Z,999.69
2019-02-08T05:31:02.738Z,999.71
2019-02-08T05:32:02.753Z,999.65
2019-02-08T05:33:02.693Z,999.61
2019-02-08T05:34:02.679Z,999.62
2019-02-08T05:35:02.676Z,999.56
2019-02-08T05:36:02.694Z,999.53
2019-02-08T05:37:02.658Z,999.53
2019-02-08T05:38:02.642Z,999.55
2019-02-08T05:39:02.630Z,999.56
2019-02-08T05:40:02.620Z,999.49
2019-02-08T05:41:02.629Z,999.52
2019-02-08T05:42:02.601Z,999.48
2019-02-08T05:43:02.613Z,999.45
2019-02-08T05:44:02.572Z,999.51
2019-02-08T05:45:02.563Z,999.46
2019-02-08T05:46:02.557Z,999.51
2019-02-08T05:47:02.567Z,999.50
2019-02-08T05:48:02.546Z,999.50
2019-02-08T05:49:02.521Z,999.48
2019-02-08T05:50:02.514Z,999.51
2019-02-08T05:51:02.494Z,999.51
2019-02-08T05:52:02.484Z,999.50
2019-02-08T05:53:02.481Z,999.44
2019-02-08T05:54:02.489Z,999.50
2019-02-08T05:55:02.459Z,999.44
2019-02-08T05:56:02.458Z,999.42
2019-02-08T05:57:02.431Z,999.46
2019-02-08T05:58:02.436Z,999.42
2019-02-08T05:59:02.466Z,999.42
2019-02-08T06:00:02.408Z,999.40
2019-02-08T06:01:02.396Z,999.42
2019-02-08T06:02:02.408Z,999.38
2019-02-08T06:03:02.418Z,999.41
2019-02-08T06:04:02.366Z,999.38
2019-02-08T06:05:02.357Z,999.38
2019-02-08T06:06:02.362Z,999.37
2019-02-08T06:07:02.330Z,999.38
2019-02-08T06:08:02.317Z,999.35
2019-02-08T06:09:02.327Z,999.39
2019-02-08T06:10:02.315Z,999.36
2019-02-08T06:11:02.293Z,999.39
2019-02-08T06:12:02.275Z,999.39
2019-02-08T06:13:02.263Z,999.40
2019-02-08T06:14:02.315Z,999.39
2019-02-08T06:15:02.239Z,999.44
2019-02-08T06:16:02.233Z,999.48
2019-02-08T06:17:02.221Z,999.47
2019-02-08T06:18:02.207Z,999.48
2019-02-08T06:19:02.209Z,999.47
2019-02-08T06:20:02.190Z,999.43
2019-02-08T06:21:02.180Z,999.44
2019-02-08T06:22:02.226Z,999.38
2019-02-08T06:23:02.155Z,999.39
2019-02-08T06:24:02.156Z,999.41
2019-02-08T06:25:04.251Z,999.43
2019-02-08T06:26:02.119Z,999.48
2019-02-08T06:27:02.126Z,999.49
2019-02-08T06:28:02.106Z,999.38
2019-02-08T06:29:02.113Z,999.41
2019-02-08T06:30:02.083Z,999.43
2019-02-08T06:31:02.073Z,999.35
2019-02-08T06:32:02.057Z,999.49
2019-02-08T06:33:02.058Z,999.44
2019-02-08T06:34:02.037Z,999.52
2019-02-08T06:35:02.058Z,999.43
2019-02-08T06:36:02.011Z,999.44
2019-02-08T06:37:02.002Z,999.34
2019-02-08T06:38:01.990Z,999.40
2019-02-08T06:39:01.984Z,999.42
2019-02-08T06:40:02.005Z,999.43
2019-02-08T06:41:01.962Z,999.58
2019-02-08T06:42:01.952Z,999.45
2019-02-08T06:43:01.945Z,999.51
2019-02-08T06:44:01.950Z,999.49
2019-02-08T06:45:01.937Z,999.46
2019-02-08T06:46:01.911Z,999.52
2019-02-08T06:47:01.890Z,999.49
2019-02-08T06:48:01.879Z,999.50
2019-02-08T06:49:01.868Z,999.50
2019-02-08T06:50:01.866Z,999.56
2019-02-08T06:51:01.875Z,999.49
2019-02-08T06:52:01.854Z,999.49
2019-02-08T06:53:01.828Z,999.48
2019-02-08T06:54:01.827Z,999.55
2019-02-08T06:55:01.811Z,999.56
2019-02-08T06:56:01.791Z,999.56
2019-02-08T06:57:01.782Z,999.51
2019-02-08T06:58:01.778Z,999.50
2019-02-08T06:59:01.771Z,999.53
2019-02-08T07:00:01.769Z,999.54
2019-02-08T07:01:01.742Z,999.58
2019-02-08T07:02:01.735Z,999.58
2019-02-08T07:03:01.725Z,999.58
2019-02-08T07:04:01.706Z,999.57
2019-02-08T07:05:01.703Z,999.59
2019-02-08T07:06:01.722Z,999.53
2019-02-08T07:07:01.668Z,999.46
2019-02-08T07:08:01.666Z,999.51
2019-02-08T07:09:01.656Z,999.49
2019-02-08T07:10:01.637Z,999.56
2019-02-08T07:11:01.645Z,999.55
2019-02-08T07:12:01.638Z,999.59
2019-02-08T07:13:01.611Z,999.57
2019-02-08T07:14:01.599Z,999.54
2019-02-08T07:15:01.587Z,999.58
2019-02-08T07:16:01.577Z,999.58
2019-02-08T07:17:01.568Z,999.53
2019-02-08T07:18:01.578Z,999.53
2019-02-08T07:19:01.547Z,999.54
2019-02-08T07:20:01.534Z,999.52
2019-02-08T07:21:01.535Z,999.54
2019-02-08T07:22:01.605Z,999.55
2019-02-08T07:23:01.518Z,999.53
2019-02-08T07:24:01.505Z,999.56
2019-02-08T07:25:01.485Z,999.49
2019-02-08T07:26:01.473Z,999.57
2019-02-08T07:27:01.471Z,999.53
2019-02-08T07:28:01.445Z,999.58
2019-02-08T07:29:01.462Z,999.55
2019-02-08T07:30:01.429Z,999.57
2019-02-08T07:31:01.427Z,999.53
2019-02-08T07:32:01.412Z,999.53
2019-02-08T07:33:01.402Z,999.60
2019-02-08T07:34:01.378Z,999.50
2019-02-08T07:35:01.422Z,999.54
2019-02-08T07:36:01.388Z,999.53
2019-02-08T07:37:01.350Z,999.48
2019-02-08T07:38:01.352Z,999.53
2019-02-08T07:39:01.345Z,999.49
2019-02-08T07:40:01.331Z,999.48
2019-02-08T07:41:01.304Z,999.46
2019-02-08T07:42:01.296Z,999.38
2019-02-08T07:43:01.297Z,999.39
2019-02-08T07:44:01.313Z,999.45
2019-02-08T07:45:01.317Z,999.39
2019-02-08T07:46:01.265Z,999.39
2019-02-08T07:47:01.240Z,999.36
2019-02-08T07:48:01.252Z,999.41
2019-02-08T07:49:01.256Z,999.42
2019-02-08T07:50:01.233Z,999.39
2019-02-08T07:51:01.190Z,999.42
2019-02-08T07:52:01.237Z,999.42
2019-02-08T07:53:01.218Z,999.40
2019-02-08T07:54:01.193Z,999.36
2019-02-08T07:55:01.610Z,999.45
2019-02-08T07:56:01.151Z,999.45
2019-02-08T07:57:01.138Z,999.41
2019-02-08T07:58:01.124Z,999.44
2019-02-08T07:59:01.111Z,999.47
2019-02-08T08:00:01.120Z,999.52
2019-02-08T08:01:01.085Z,999.46
2019-02-08T08:02:01.107Z,999.49
2019-02-08T08:03:01.079Z,999.55
2019-02-08T08:04:01.733Z,999.50
2019-02-08T08:05:01.044Z,999.50
2019-02-08T08:06:01.068Z,999.51
2019-02-08T08:07:01.028Z,999.56
2019-02-08T08:08:01.020Z,999.52
2019-02-08T08:09:01.003Z,999.56
2019-02-08T08:10:01.070Z,999.50
2019-02-08T08:11:00.987Z,999.51
2019-02-08T08:12:00.967Z,999.58
2019-02-08T08:13:00.972Z,999.53
2019-02-08T08:14:00.958Z,999.57
2019-02-08T08:15:00.988Z,999.56
2019-02-08T08:16:00.931Z,999.61
2019-02-08T08:17:01.003Z,999.62
2019-02-08T08:18:00.956Z,999.58
2019-02-08T08:19:00.886Z,999.61
2019-02-08T08:20:00.913Z,999.66
2019-02-08T08:21:00.888Z,999.70
2019-02-08T08:22:00.885Z,999.67
2019-02-08T08:23:00.877Z,999.68
2019-02-08T08:24:00.861Z,999.64
2019-02-08T08:25:00.858Z,999.63
2019-02-08T08:26:00.809Z,999.69
2019-02-08T08:27:00.826Z,999.63
2019-02-08T08:28:00.870Z,999.66
2019-02-08T08:29:00.810Z,999.63
2019-02-08T08:30:00.808Z,999.61
2019-02-08T08:31:00.763Z,999.67
2019-02-08T08:32:00.762Z,999.61
2019-02-08T08:33:00.743Z,999.58
2019-02-08T08:34:00.734Z,999.58
2019-02-08T08:35:00.723Z,999.60
2019-02-08T08:36:00.752Z,999.58
2019-02-08T08:37:00.708Z,999.55
2019-02-08T08:38:00.688Z,999.56
2019-02-08T08:39:00.701Z,999.59
2019-02-08T08:40:00.663Z,999.60
2019-02-08T08:41:00.662Z,999.56
2019-02-08T08:42:00.669Z,999.60
2019-02-08T08:43:00.626Z,999.56
2019-02-08T08:44:00.665Z,999.53
2019-02-08T08:45:00.605Z,999.55
2019-02-08T08:46:00.597Z,999.53
2019-02-08T08:47:00.598Z,999.56
2019-02-08T08:48:00.582Z,999.52
2019-02-08T08:49:00.575Z,999.53
2019-02-08T08:50:00.646Z,999.51
2019-02-08T08:51:00.541Z,999.56
2019-02-08T08:52:00.575Z,999.48
2019-02-08T08:53:00.536Z,999.52
2019-02-08T08:54:00.536Z,999.49
2019-02-08T08:55:00.503Z,999.45
2019-02-08T08:56:00.490Z,999.42
2019-02-08T08:57:00.515Z,999.45
2019-02-08T08:58:00.487Z,999.47
2019-02-08T08:59:00.490Z,999.41
2019-02-08T09:00:00.544Z,999.41
2019-02-08T09:01:00.440Z,999.35
2019-02-08T09:02:00.428Z,999.43
2019-02-08T09:03:00.443Z,999.46
2019-02-08T09:04:00.413Z,999.47
2019-02-08T09:05:00.404Z,999.52
2019-02-08T09:06:08.060Z,999.51
2019-02-08T09:07:01.370Z,999.45
2019-02-08T09:08:00.383Z,999.49
2019-02-08T09:09:00.344Z,999.50
2019-02-08T09:10:00.369Z,999.43
2019-02-08T09:11:00.346Z,999.47
2019-02-08T09:12:00.320Z,999.45
2019-02-08T09:13:00.333Z,999.41
2019-02-08T09:14:00.295Z,999.42
2019-02-08T09:15:00.281Z,999.38
2019-02-08T09:16:00.274Z,999.36
2019-02-08T09:17:00.256Z,999.45
2019-02-08T09:18:00.248Z,999.38
2019-02-08T09:19:00.252Z,999.28
2019-02-08T09:20:00.331Z,999.32
2019-02-08T09:21:00.237Z,999.28
2019-02-08T09:22:00.214Z,999.29
2019-02-08T09:23:00.194Z,999.34
2019-02-08T09:24:00.184Z,999.36
2019-02-08T09:25:00.295Z,999.27
2019-02-08T09:26:00.192Z,999.33
2019-02-08T09:27:00.176Z,999.29
2019-02-08T09:28:00.186Z,999.31
2019-02-08T09:29:00.134Z,999.20
2019-02-08T09:30:00.206Z,999.15
2019-02-08T09:31:00.110Z,999.20
2019-02-08T09:32:00.119Z,999.25
2019-02-08T09:33:00.095Z,999.23
2019-02-08T09:34:00.078Z,999.19
2019-02-08T09:35:00.147Z,999.25
2019-02-08T09:36:00.058Z,999.20
2019-02-08T09:37:00.053Z,999.16
2019-02-08T09:38:00.031Z,999.17
2019-02-08T09:39:00.026Z,999.17
2019-02-08T09:40:00.016Z,999.21
2019-02-08T09:41:00.001Z,999.14
2019-02-08T09:42:00.005Z,999.16
2019-02-08T09:42:59.987Z,999.10
2019-02-08T09:43:59.988Z,999.13
2019-02-08T09:44:59.981Z,999.08
2019-02-08T09:45:59.966Z,999.08
2019-02-08T09:46:59.942Z,999.08
2019-02-08T09:47:59.933Z,999.08
2019-02-08T09:48:59.911Z,999.04
2019-02-08T09:49:59.922Z,999.01
2019-02-08T09:50:59.898Z,999.06
2019-02-08T09:51:59.890Z,999.07
2019-02-08T09:52:59.882Z,999.06
2019-02-08T09:53:59.861Z,999.02
2019-02-08T09:54:59.860Z,999.02
2019-02-08T09:56:00.031Z,999.04
2019-02-08T09:56:59.838Z,998.98
2019-02-08T09:57:59.900Z,998.89
2019-02-08T09:58:59.812Z,998.88
2019-02-08T09:59:59.798Z,998.96
2019-02-08T10:00:59.782Z,998.89
2019-02-08T10:01:59.790Z,998.90
2019-02-08T10:02:59.764Z,998.90
2019-02-08T10:03:59.767Z,998.95
2019-02-08T10:04:59.760Z,998.91
2019-02-08T10:05:59.754Z,998.87
2019-02-08T10:06:59.718Z,998.93
2019-02-08T10:07:59.709Z,998.90
2019-02-08T10:08:59.723Z,998.95
2019-02-08T10:09:59.688Z,998.86
2019-02-08T10:10:59.690Z,998.92
2019-02-08T10:11:59.683Z,998.99
2019-02-08T10:12:59.651Z,998.92
2019-02-08T10:13:59.646Z,998.99
2019-02-08T10:14:59.657Z,999.03
2019-02-08T10:15:59.648Z,998.99
2019-02-08T10:16:59.616Z,999.03
2019-02-08T10:17:59.602Z,998.93
2019-02-08T10:18:59.593Z,998.96
2019-02-08T10:19:59.605Z,998.93
2019-02-08T10:20:59.564Z,998.91
2019-02-08T10:21:59.562Z,998.96
2019-02-08T10:22:59.556Z,998.95
2019-02-08T10:23:59.555Z,998.93
2019-02-08T10:24:59.544Z,998.94
2019-02-08T10:26:05.199Z,998.96
2019-02-08T10:27:00.514Z,998.88
2019-02-08T10:27:59.496Z,998.90
2019-02-08T10:28:59.487Z,998.87
2019-02-08T10:29:59.482Z,998.83
2019-02-08T10:30:59.486Z,998.90
2019-02-08T10:31:59.445Z,998.89
2019-02-08T10:32:59.435Z,998.87
2019-02-08T10:33:59.454Z,998.88
2019-02-08T10:34:59.427Z,998.82
2019-02-08T10:35:59.410Z,998.81
2019-02-08T10:36:59.421Z,998.85
2019-02-08T10:37:59.384Z,998.83
2019-02-08T10:38:59.394Z,998.83
2019-02-08T10:39:59.356Z,998.85
2019-02-08T10:40:59.350Z,998.77
2019-02-08T10:41:59.338Z,998.84
2019-02-08T10:42:59.349Z,998.73
2019-02-08T10:43:59.360Z,998.77
2019-02-08T10:44:59.336Z,998.75
2019-02-08T10:45:59.301Z,998.63
2019-02-08T10:46:59.307Z,998.70
2019-02-08T10:47:59.282Z,998.68
2019-02-08T10:48:59.274Z,998.57
2019-02-08T10:49:59.267Z,998.67
2019-02-08T10:50:59.251Z,998.67
2019-02-08T10:51:59.226Z,998.65
2019-02-08T10:52:59.261Z,998.62
2019-02-08T10:53:59.209Z,998.61
2019-02-08T10:54:59.240Z,998.53
2019-02-08T10:55:59.195Z,998.50
2019-02-08T10:56:59.192Z,998.51
2019-02-08T10:57:59.185Z,998.54
2019-02-08T10:58:59.157Z,998.61
2019-02-08T10:59:59.143Z,998.55
2019-02-08T11:00:59.165Z,998.56
2019-02-08T11:01:59.137Z,998.53
2019-02-08T11:02:59.131Z,998.52
2019-02-08T11:03:59.097Z,998.57
2019-02-08T11:04:59.089Z,998.52
2019-02-08T11:05:59.080Z,998.49
2019-02-08T11:06:59.077Z,998.44
2019-02-08T11:07:59.102Z,998.47
2019-02-08T11:08:59.083Z,998.43
2019-02-08T11:09:59.040Z,998.54
2019-02-08T11:10:59.028Z,998.42
2019-02-08T11:11:59.012Z,998.47
2019-02-08T11:12:59.000Z,998.50
2019-02-08T11:13:59.006Z,998.49
2019-02-08T11:14:58.999Z,998.53
2019-02-08T11:15:58.982Z,998.50
2019-02-08T11:16:58.971Z,998.45
2019-02-08T11:17:58.954Z,998.49
2019-02-08T11:18:58.952Z,998.41
2019-02-08T11:19:58.931Z,998.42
2019-02-08T11:20:58.922Z,998.33
2019-02-08T11:21:58.906Z,998.44
2019-02-08T11:22:58.892Z,998.41
2019-02-08T11:23:58.896Z,998.40
2019-02-08T11:24:58.879Z,998.34
2019-02-08T11:25:58.864Z,998.34
2019-02-08T11:26:58.850Z,998.34
2019-02-08T11:27:58.842Z,998.40
2019-02-08T11:28:58.834Z,998.28
2019-02-08T11:29:58.846Z,998.31
2019-02-08T11:30:58.804Z,998.34
2019-02-08T11:31:58.795Z,998.20
2019-02-08T11:32:58.791Z,998.31
2019-02-08T11:33:58.783Z,998.21
2019-02-08T11:34:58.780Z,998.23
2019-02-08T11:35:58.753Z,998.21
2019-02-08T11:36:58.736Z,998.18
2019-02-08T11:37:58.732Z,998.24
2019-02-08T11:38:58.745Z,998.10
2019-02-08T11:39:58.723Z,998.04
2019-02-08T11:40:58.705Z,998.13
2019-02-08T11:41:58.704Z,998.11
2019-02-08T11:42:58.672Z,998.10
2019-02-08T11:43:58.658Z,998.08
2019-02-08T11:44:58.646Z,998.00
2019-02-08T11:45:58.643Z,998.06
2019-02-08T11:46:58.647Z,998.06
2019-02-08T11:47:58.629Z,998.04
2019-02-08T11:48:58.604Z,997.99
2019-02-08T11:49:58.594Z,998.06
2019-02-08T11:50:58.599Z,997.98
2019-02-08T11:51:58.578Z,998.05
2019-02-08T11:52:58.567Z,997.96
2019-02-08T11:53:58.553Z,997.95
2019-02-08T11:54:58.541Z,997.97
2019-02-08T11:55:58.541Z,997.94
2019-02-08T11:56:58.519Z,997.85
2019-02-08T11:57:58.520Z,997.88
2019-02-08T11:58:58.501Z,997.83
2019-02-08T11:59:58.492Z,997.84
2019-02-08T12:00:58.480Z,997.77
2019-02-08T12:01:58.489Z,997.80
2019-02-08T12:02:58.476Z,997.81
2019-02-08T12:03:58.464Z,997.80
2019-02-08T12:04:58.444Z,997.81
2019-02-08T12:05:58.424Z,997.78
2019-02-08T12:06:58.411Z,997.74
2019-02-08T12:07:58.395Z,997.80
2019-02-08T12:08:58.397Z,997.72
2019-02-08T12:09:58.385Z,997.79
2019-02-08T12:10:58.376Z,997.72
2019-02-08T12:11:58.360Z,997.66
2019-02-08T12:12:58.348Z,997.73
2019-02-08T12:13:58.351Z,997.72
2019-02-08T12:14:58.325Z,997.74
2019-02-08T12:15:58.361Z,997.66
2019-02-08T12:16:58.310Z,997.60
2019-02-08T12:17:58.291Z,997.54
2019-02-08T12:18:58.304Z,997.59
2019-02-08T12:19:58.291Z,997.59
2019-02-08T12:20:58.268Z,997.59